createdAt,value
2023-03-17T00:00:55.042Z,99.90
2023-03-17T00:03:24.615Z,99.90
2023-03-17T00:05:51.832Z,99.90
2023-03-17T00:08:26.853Z,99.90
2023-03-17T00:10:54.113Z,99.90
2023-03-17T00:13:20.834Z,99.90
2023-03-17T00:15:53.220Z,99.90
2023-03-17T00:18:20.430Z,99.90
2023-03-17T00:20:47.650Z,99.90
2023-03-17T00:23:18.709Z,99.90
2023-03-17T00:25:46.686Z,99.90
2023-03-17T00:28:16.226Z,99.90
2023-03-17T00:30:43.093Z,99.90
2023-03-17T00:33:10.013Z,99.90
2023-03-17T00:35:37.329Z,99.90
2023-03-17T00:38:04.097Z,99.90
2023-03-17T00:40:31.635Z,99.90
2023-03-17T00:42:59.906Z,99.90
2023-03-17T00:45:27.093Z,99.90
2023-03-17T00:47:55.919Z,99.90
2023-03-17T00:50:23.734Z,99.90
2023-03-17T00:52:51.412Z,99.90
2023-03-17T00:55:19.559Z,99.90
2023-03-17T00:57:49.050Z,99.90
2023-03-17T01:00:26.652Z,99.90
2023-03-17T01:02:54.513Z,99.90
2023-03-17T01:05:22.277Z,99.90
2023-03-17T01:07:52.878Z,99.90
2023-03-17T01:10:21.477Z,99.90
2023-03-17T01:12:50.994Z,99.90
2023-03-17T01:15:17.918Z,99.90
2023-03-17T01:17:45.914Z,99.90
2023-03-17T01:20:17.638Z,99.90
2023-03-17T01:22:44.350Z,99.90
2023-03-17T01:25:12.081Z,99.90
2023-03-17T01:27:39.650Z,99.90
2023-03-17T01:30:07.096Z,99.90
2023-03-17T01:32:33.888Z,99.90
2023-03-17T01:35:01.282Z,99.90
2023-03-17T01:37:28.567Z,99.90
2023-03-17T01:39:55.236Z,99.90
2023-03-17T01:42:21.998Z,99.90
2023-03-17T01:45:02.272Z,99.90
2023-03-17T01:47:32.593Z,99.90
2023-03-17T01:50:06.155Z,99.90
2023-03-17T01:52:35.882Z,99.90
2023-03-17T01:55:02.568Z,99.90
2023-03-17T01:57:53.441Z,99.90
2023-03-17T02:00:21.649Z,99.90
2023-03-17T02:02:52.240Z,99.90
2023-03-17T02:05:21.085Z,99.90
2023-03-17T02:07:48.333Z,99.90
2023-03-17T02:10:17.589Z,99.90
2023-03-17T02:12:45.663Z,99.90
2023-03-17T02:15:12.634Z,99.90
2023-03-17T02:17:39.319Z,99.90
2023-03-17T02:20:32.769Z,99.90
2023-03-17T02:23:00.228Z,99.90
2023-03-17T02:25:28.482Z,99.90
2023-03-17T02:27:57.785Z,99.90
2023-03-17T02:30:24.581Z,99.90
2023-03-17T02:32:51.398Z,99.90
2023-03-17T02:35:19.215Z,99.90
2023-03-17T02:37:46.640Z,99.90
2023-03-17T02:40:14.201Z,99.90
2023-03-17T02:42:41.954Z,99.90
2023-03-17T02:45:10.090Z,99.90
2023-03-17T02:47:38.467Z,99.90
2023-03-17T02:50:05.977Z,99.90
2023-03-17T02:52:32.737Z,99.90
2023-03-17T02:54:59.394Z,99.90
2023-03-17T02:57:26.634Z,99.90
2023-03-17T02:59:53.798Z,99.90
2023-03-17T03:02:20.474Z,99.90
2023-03-17T03:04:47.744Z,99.90
2023-03-17T03:07:14.412Z,99.90
2023-03-17T03:09:42.056Z,99.90
2023-03-17T03:12:10.001Z,99.90
2023-03-17T03:14:36.822Z,99.90
2023-03-17T03:17:04.412Z,99.90
2023-03-17T03:19:31.162Z,99.90
2023-03-17T03:21:57.833Z,99.90
2023-03-17T03:24:24.531Z,99.90
2023-03-17T03:26:51.726Z,99.90
2023-03-17T03:29:18.492Z,99.90
2023-03-17T03:31:45.270Z,99.90
2023-03-17T03:34:11.959Z,99.90
2023-03-17T03:36:38.690Z,99.90
2023-03-17T03:39:05.465Z,99.90
2023-03-17T03:41:32.166Z,99.90
2023-03-17T03:43:58.838Z,99.90
2023-03-17T03:46:26.706Z,99.90
2023-03-17T03:48:53.871Z,99.90
2023-03-17T03:51:20.785Z,99.90
2023-03-17T03:53:48.506Z,99.90
2023-03-17T03:56:15.509Z,99.90
2023-03-17T03:58:42.300Z,99.90
2023-03-17T04:01:09.571Z,99.90
2023-03-17T04:03:36.743Z,99.90
2023-03-17T04:06:03.506Z,99.90
2023-03-17T04:08:31.760Z,99.90
2023-03-17T04:10:58.772Z,99.90
2023-03-17T04:13:25.733Z,99.90
2023-03-17T04:15:52.609Z,99.90
2023-03-17T04:18:19.533Z,99.90
2023-03-17T04:20:46.129Z,99.90
2023-03-17T04:23:12.847Z,99.90
2023-03-17T04:25:39.454Z,99.90
2023-03-17T04:28:06.432Z,99.90
2023-03-17T04:30:33.303Z,99.90
2023-03-17T04:33:00.176Z,99.90
2023-03-17T04:35:27.190Z,99.90
2023-03-17T04:37:53.875Z,99.90
2023-03-17T04:40:20.677Z,99.90
2023-03-17T04:42:47.365Z,99.90
2023-03-17T04:45:17.761Z,99.90
2023-03-17T04:47:46.131Z,99.90
2023-03-17T04:50:13.953Z,99.90
2023-03-17T04:52:41.121Z,99.90
2023-03-17T04:55:08.432Z,99.90
2023-03-17T04:57:36.089Z,99.90
2023-03-17T05:00:03.538Z,99.90
2023-03-17T05:02:30.678Z,99.90
2023-03-17T05:04:57.427Z,99.90
2023-03-17T05:07:24.137Z,99.90
2023-03-17T05:09:51.753Z,99.90
2023-03-17T05:12:18.444Z,99.90
2023-03-17T05:14:45.149Z,99.90
2023-03-17T05:17:11.866Z,99.90
2023-03-17T05:19:38.559Z,99.90
2023-03-17T05:22:05.727Z,99.90
2023-03-17T05:24:32.483Z,99.90
2023-03-17T05:26:59.144Z,99.90
2023-03-17T05:29:25.912Z,99.90
2023-03-17T05:31:52.643Z,99.90
2023-03-17T05:34:19.477Z,99.90
2023-03-17T05:36:46.478Z,99.90
2023-03-17T05:39:14.593Z,99.90
2023-03-17T05:41:42.540Z,99.90
2023-03-17T05:44:09.192Z,99.90
2023-03-17T05:46:36.313Z,99.90
2023-03-17T05:49:03.613Z,99.90
2023-03-17T05:51:30.244Z,99.90
2023-03-17T05:53:57.530Z,99.90
2023-03-17T05:56:24.869Z,99.90
2023-03-17T05:58:51.675Z,99.90
2023-03-17T06:01:18.390Z,99.90
2023-03-17T06:03:45.212Z,99.90
2023-03-17T06:06:12.444Z,99.90
2023-03-17T06:08:39.066Z,99.90
2023-03-17T06:11:05.648Z,99.90
2023-03-17T06:13:32.283Z,99.90
2023-03-17T06:15:59.143Z,99.90
2023-03-17T06:18:25.846Z,99.90
2023-03-17T06:20:52.929Z,99.90
2023-03-17T06:23:19.686Z,99.90
2023-03-17T06:25:47.612Z,99.90
2023-03-17T06:28:14.328Z,99.90
2023-03-17T06:30:41.122Z,99.90
2023-03-17T06:33:08.362Z,99.90
2023-03-17T06:35:35.537Z,99.90
2023-03-17T06:38:03.493Z,99.90
2023-03-17T06:40:30.375Z,99.90
2023-03-17T06:42:57.110Z,99.90
2023-03-17T06:45:23.904Z,99.90
2023-03-17T06:47:50.620Z,99.90
2023-03-17T06:50:17.492Z,99.90
2023-03-17T06:52:46.641Z,99.90
2023-03-17T06:55:13.638Z,99.90
2023-03-17T06:57:40.428Z,99.90
2023-03-17T07:00:07.605Z,99.90
2023-03-17T07:02:34.838Z,99.90
2023-03-17T07:05:01.630Z,99.90
2023-03-17T07:07:28.463Z,99.90
2023-03-17T07:09:55.181Z,99.90
2023-03-17T07:12:21.950Z,99.90
2023-03-17T07:14:48.636Z,99.90
2023-03-17T07:17:15.314Z,99.90
2023-03-17T07:19:42.678Z,99.90
2023-03-17T07:22:11.090Z,99.90
2023-03-17T07:24:37.850Z,99.90
2023-03-17T07:27:04.467Z,99.90
2023-03-17T07:29:32.358Z,99.90
2023-03-17T07:31:59.003Z,99.90
2023-03-17T07:34:25.826Z,99.90
2023-03-17T07:36:52.547Z,99.90
2023-03-17T07:39:19.131Z,99.90
2023-03-17T07:41:48.327Z,99.90
2023-03-17T07:44:15.391Z,99.90
2023-03-17T07:46:42.539Z,99.90
2023-03-17T07:49:09.190Z,99.90
2023-03-17T07:51:36.282Z,99.90
2023-03-17T07:54:06.402Z,99.90
2023-03-17T07:56:33.144Z,99.90
2023-03-17T07:59:00.076Z,99.90
2023-03-17T08:01:27.645Z,99.90
2023-03-17T08:03:54.889Z,99.90
2023-03-17T08:06:22.060Z,99.90
2023-03-17T08:08:48.746Z,99.90
2023-03-17T08:11:15.647Z,99.90
2023-03-17T08:13:42.542Z,99.90
2023-03-17T08:16:09.296Z,99.90
2023-03-17T08:18:36.817Z,99.90
2023-03-17T08:21:03.856Z,99.90
2023-03-17T08:23:31.087Z,99.90
2023-03-17T08:25:58.484Z,99.90
2023-03-17T08:28:25.183Z,99.90
2023-03-17T08:30:52.634Z,99.90
2023-03-17T08:33:19.596Z,99.90
2023-03-17T08:35:46.949Z,99.90
2023-03-17T08:38:14.067Z,99.90
2023-03-17T08:40:41.086Z,99.90
2023-03-17T08:43:07.728Z,99.90
2023-03-17T08:45:34.406Z,99.90
2023-03-17T08:48:01.245Z,99.90
2023-03-17T08:50:27.961Z,99.90
2023-03-17T08:52:55.018Z,99.90
2023-03-17T08:55:21.694Z,99.40
2023-03-17T08:57:48.604Z,96.80
2023-03-17T09:00:16.740Z,95.70
2023-03-17T09:02:43.945Z,93.30
2023-03-17T09:05:14.559Z,87.50
2023-03-17T09:07:41.860Z,82.60
2023-03-17T09:10:10.730Z,79.40
2023-03-17T09:12:37.987Z,75.90
2023-03-17T09:15:05.364Z,75.00
2023-03-17T09:17:33.213Z,75.90
2023-03-17T09:19:59.817Z,74.80
2023-03-17T09:22:27.028Z,74.80
2023-03-17T09:24:53.722Z,76.40
2023-03-17T09:27:20.360Z,75.00
2023-03-17T09:29:47.199Z,73.30
2023-03-17T09:32:13.844Z,72.80
2023-03-17T09:34:40.462Z,72.50
2023-03-17T09:37:07.106Z,72.80
2023-03-17T09:39:34.048Z,73.10
2023-03-17T09:42:06.272Z,73.00
2023-03-17T09:44:33.104Z,72.50
2023-03-17T09:47:15.293Z,71.70
2023-03-17T09:49:48.381Z,72.90
2023-03-17T09:52:16.481Z,72.00
2023-03-17T09:54:43.276Z,73.30
2023-03-17T09:57:16.552Z,73.10
2023-03-17T09:59:46.814Z,73.20
2023-03-17T10:02:25.846Z,73.20
2023-03-17T10:04:53.003Z,73.90
2023-03-17T10:07:23.377Z,74.80
2023-03-17T10:09:56.382Z,74.70
2023-03-17T10:12:32.948Z,75.00
2023-03-17T10:15:06.688Z,74.80
2023-03-17T10:17:39.395Z,73.70
2023-03-17T10:20:08.795Z,74.80
2023-03-17T10:22:41.736Z,75.50
2023-03-17T10:25:21.869Z,74.20
2023-03-17T10:27:55.666Z,74.20
2023-03-17T10:30:23.446Z,73.90
2023-03-17T10:32:52.518Z,73.40
2023-03-17T10:35:19.762Z,73.30
2023-03-17T10:37:46.952Z,73.60
2023-03-17T10:40:21.361Z,73.40
2023-03-17T10:42:51.688Z,73.90
2023-03-17T10:45:19.145Z,72.90
2023-03-17T10:47:49.132Z,71.30
2023-03-17T10:50:15.725Z,70.00
2023-03-17T10:52:42.341Z,69.50
2023-03-17T10:55:13.354Z,69.20
2023-03-17T10:57:40.861Z,67.60
2023-03-17T11:00:19.880Z,65.50
2023-03-17T11:02:53.298Z,65.10
2023-03-17T11:05:21.906Z,64.60
2023-03-17T11:07:48.640Z,64.40
2023-03-17T11:10:19.612Z,64.00
2023-03-17T11:12:48.548Z,63.20
2023-03-17T11:15:17.901Z,62.60
2023-03-17T11:17:51.687Z,61.60
2023-03-17T11:20:37.208Z,60.20
2023-03-17T11:23:11.118Z,59.60
2023-03-17T11:25:41.145Z,59.70
2023-03-17T11:28:21.797Z,59.40
2023-03-17T11:30:57.130Z,58.90
2023-03-17T11:33:40.157Z,59.50
2023-03-17T11:36:13.069Z,59.90
2023-03-17T11:38:49.624Z,60.20
2023-03-17T11:41:27.134Z,60.00
2023-03-17T11:44:03.129Z,61.20
2023-03-17T11:46:29.826Z,61.90
2023-03-17T11:49:15.189Z,60.40
2023-03-17T11:51:51.434Z,59.10
2023-03-17T11:54:24.706Z,59.20
2023-03-17T11:56:52.940Z,59.30
2023-03-17T11:59:42.031Z,59.60
2023-03-17T12:02:20.766Z,59.50
2023-03-17T12:04:58.333Z,59.20
2023-03-17T12:07:28.898Z,59.60
2023-03-17T12:09:58.765Z,59.90
2023-03-17T12:12:29.198Z,60.80
2023-03-17T12:14:57.135Z,62.30
2023-03-17T12:17:29.094Z,62.50
2023-03-17T12:20:16.417Z,62.50
2023-03-17T12:22:46.955Z,63.30
2023-03-17T12:25:33.978Z,64.30
2023-03-17T12:28:14.297Z,65.00
2023-03-17T12:30:52.606Z,65.50
2023-03-17T12:33:22.801Z,66.30
2023-03-17T12:35:49.489Z,66.90
2023-03-17T12:38:19.027Z,67.50
2023-03-17T12:41:13.189Z,67.90
2023-03-17T12:43:39.928Z,68.80
2023-03-17T12:46:06.915Z,70.10
2023-03-17T12:48:42.698Z,71.20
2023-03-17T12:51:31.589Z,71.60
2023-03-17T12:54:00.165Z,70.10
2023-03-17T12:56:31.726Z,71.70
2023-03-17T12:59:01.513Z,71.00
2023-03-17T13:01:34.428Z,70.90
2023-03-17T13:04:07.346Z,71.50
2023-03-17T13:06:39.288Z,72.20
2023-03-17T13:09:24.494Z,72.60
2023-03-17T13:11:51.513Z,72.50
2023-03-17T13:14:28.457Z,72.40
2023-03-17T13:17:14.152Z,71.80
2023-03-17T13:19:54.796Z,71.40
2023-03-17T13:22:21.507Z,71.30
2023-03-17T13:24:50.127Z,70.90
2023-03-17T13:27:32.425Z,71.80
2023-03-17T13:29:59.998Z,71.60
2023-03-17T13:32:26.726Z,72.50
2023-03-17T13:34:55.776Z,72.40
2023-03-17T13:37:28.636Z,72.30
2023-03-17T13:40:10.698Z,71.00
2023-03-17T13:42:47.340Z,71.90
2023-03-17T13:45:19.663Z,72.60
2023-03-17T13:47:47.186Z,71.60
2023-03-17T13:50:21.373Z,71.60
2023-03-17T13:52:48.155Z,71.80
2023-03-17T13:55:17.922Z,71.60
2023-03-17T13:58:03.841Z,72.40
2023-03-17T14:00:33.173Z,73.10
2023-03-17T14:03:17.553Z,73.20
2023-03-17T14:05:47.379Z,74.00
2023-03-17T14:08:27.340Z,74.40
2023-03-17T14:10:54.753Z,74.80
2023-03-17T14:13:31.609Z,75.00
2023-03-17T14:16:07.349Z,74.80
2023-03-17T14:18:35.962Z,74.00
2023-03-17T14:21:08.440Z,74.40
2023-03-17T14:23:36.613Z,73.80
2023-03-17T14:26:07.684Z,74.20
2023-03-17T14:28:35.382Z,74.40
2023-03-17T14:31:03.827Z,74.50
2023-03-17T14:33:31.795Z,74.60
2023-03-17T14:36:00.031Z,75.00
2023-03-17T14:38:31.260Z,75.50
2023-03-17T14:41:02.957Z,75.60
2023-03-17T14:43:29.941Z,76.20
2023-03-17T14:46:07.574Z,76.60
2023-03-17T14:48:37.949Z,77.00
2023-03-17T14:51:14.673Z,77.70
2023-03-17T14:53:43.212Z,77.90
2023-03-17T14:56:10.432Z,77.70
2023-03-17T14:58:39.747Z,78.00
2023-03-17T15:01:08.212Z,78.80
2023-03-17T15:03:38.301Z,79.40
2023-03-17T15:06:22.055Z,79.80
2023-03-17T15:08:49.142Z,80.00
2023-03-17T15:11:17.516Z,80.10
2023-03-17T15:13:44.252Z,80.40
2023-03-17T15:16:20.532Z,78.90
2023-03-17T15:18:47.440Z,78.90
2023-03-17T15:21:34.143Z,79.10
2023-03-17T15:24:21.110Z,79.40
2023-03-17T15:26:47.822Z,80.50
2023-03-17T15:29:14.454Z,81.30
2023-03-17T15:31:41.204Z,82.50
2023-03-17T15:34:10.638Z,81.90
2023-03-17T15:36:37.307Z,82.00
2023-03-17T15:39:04.012Z,82.70
2023-03-17T15:41:30.647Z,83.40
2023-03-17T15:43:57.257Z,83.40
2023-03-17T15:46:27.913Z,83.30
2023-03-17T15:48:54.782Z,83.20
2023-03-17T15:51:21.509Z,83.10
2023-03-17T15:53:48.193Z,83.00
2023-03-17T15:56:16.731Z,83.20
2023-03-17T15:58:43.342Z,83.10
2023-03-17T16:01:11.638Z,83.40
2023-03-17T16:03:38.702Z,83.30
2023-03-17T16:06:11.789Z,83.40
2023-03-17T16:08:38.535Z,84.50
2023-03-17T16:11:07.654Z,84.90
2023-03-17T16:13:34.386Z,85.90
2023-03-17T16:16:05.243Z,86.10
2023-03-17T16:18:36.849Z,86.50
2023-03-17T16:21:04.173Z,86.50
2023-03-17T16:23:32.130Z,86.70
2023-03-17T16:26:11.802Z,87.10
2023-03-17T16:28:40.801Z,87.60
2023-03-17T16:31:19.176Z,88.00
2023-03-17T16:33:46.215Z,88.10
2023-03-17T16:36:17.710Z,89.30
2023-03-17T16:38:44.594Z,89.70
2023-03-17T16:41:19.225Z,90.00
2023-03-17T16:43:50.950Z,90.20
2023-03-17T16:46:18.202Z,90.40
2023-03-17T16:48:45.026Z,90.80
2023-03-17T16:51:11.732Z,91.20
2023-03-17T16:53:38.430Z,91.20
2023-03-17T16:56:06.579Z,91.20
2023-03-17T16:58:34.706Z,91.40
2023-03-17T17:01:03.388Z,91.70
2023-03-17T17:03:31.464Z,92.10
2023-03-17T17:05:58.108Z,92.30
2023-03-17T17:08:24.867Z,92.60
2023-03-17T17:10:51.602Z,92.60
2023-03-17T17:13:18.227Z,93.20
2023-03-17T17:15:45.026Z,94.00
2023-03-17T17:18:16.284Z,94.10
2023-03-17T17:20:43.495Z,95.00
2023-03-17T17:23:11.770Z,95.30
2023-03-17T17:25:38.569Z,95.20
2023-03-17T17:28:05.652Z,95.40
2023-03-17T17:30:32.729Z,95.60
2023-03-17T17:33:00.543Z,96.30
2023-03-17T17:35:29.071Z,97.80
2023-03-17T17:37:57.446Z,98.90
2023-03-17T17:40:27.455Z,99.60
2023-03-17T17:42:54.129Z,99.90
2023-03-17T17:45:20.957Z,99.90
2023-03-17T17:47:47.836Z,99.90
2023-03-17T17:50:19.427Z,99.90
2023-03-17T17:52:47.694Z,99.90
2023-03-17T17:55:14.855Z,99.90
2023-03-17T17:57:42.124Z,99.90
2023-03-17T18:00:12.720Z,99.90
2023-03-17T18:02:39.601Z,99.90
2023-03-17T18:05:08.648Z,99.90
2023-03-17T18:07:35.440Z,99.90
2023-03-17T18:10:02.180Z,99.90
2023-03-17T18:12:28.988Z,99.90
2023-03-17T18:14:55.826Z,99.90
2023-03-17T18:17:22.620Z,99.90
2023-03-17T18:19:50.398Z,99.90
2023-03-17T18:22:17.138Z,99.90
2023-03-17T18:24:44.064Z,99.90
2023-03-17T18:27:11.761Z,99.90
2023-03-17T18:29:38.844Z,99.90
2023-03-17T18:32:06.899Z,99.90
2023-03-17T18:34:35.720Z,99.90
2023-03-17T18:37:02.478Z,99.90
2023-03-17T18:39:29.757Z,99.90
2023-03-17T18:41:56.496Z,99.90
2023-03-17T18:44:24.908Z,99.90
2023-03-17T18:46:51.953Z,99.90
2023-03-17T18:49:18.787Z,99.90
2023-03-17T18:51:45.513Z,99.90
2023-03-17T18:54:12.137Z,99.90
2023-03-17T18:56:38.857Z,99.90
2023-03-17T18:59:05.571Z,99.90
2023-03-17T19:01:32.474Z,99.90
2023-03-17T19:03:59.206Z,99.90
2023-03-17T19:06:25.933Z,99.90
2023-03-17T19:08:53.003Z,99.90
2023-03-17T19:11:21.872Z,99.90
2023-03-17T19:13:48.881Z,99.90
2023-03-17T19:16:16.567Z,99.90
2023-03-17T19:18:43.367Z,99.90
2023-03-17T19:21:10.299Z,99.90
2023-03-17T19:23:38.218Z,99.90
2023-03-17T19:26:05.504Z,99.90
2023-03-17T19:28:32.607Z,99.90
2023-03-17T19:30:59.447Z,99.90
2023-03-17T19:33:26.384Z,99.90
2023-03-17T19:35:54.816Z,99.90
2023-03-17T19:38:21.972Z,99.90
2023-03-17T19:40:49.077Z,99.90
2023-03-17T19:43:28.844Z,99.90
2023-03-17T19:46:02.902Z,99.90
2023-03-17T19:48:29.548Z,99.90
2023-03-17T19:50:56.469Z,99.90
2023-03-17T19:53:23.234Z,99.90
2023-03-17T19:55:50.291Z,99.90
2023-03-17T19:58:16.991Z,99.90
2023-03-17T20:00:43.598Z,99.90
2023-03-17T20:03:10.267Z,99.90
2023-03-17T20:05:36.937Z,99.90
2023-03-17T20:08:03.566Z,99.90
2023-03-17T20:10:30.745Z,99.90
2023-03-17T20:12:57.536Z,99.90
2023-03-17T20:15:24.155Z,99.90
2023-03-17T20:17:50.912Z,99.90
2023-03-17T20:20:17.916Z,99.90
2023-03-17T20:22:45.148Z,99.90
2023-03-17T20:25:12.309Z,99.90
2023-03-17T20:27:39.493Z,99.90
2023-03-17T20:30:08.313Z,99.90
2023-03-17T20:32:35.519Z,99.90
2023-03-17T20:35:02.777Z,99.90
2023-03-17T20:37:29.821Z,99.90
2023-03-17T20:39:57.372Z,99.90
2023-03-17T20:42:24.186Z,99.90
2023-03-17T20:44:52.874Z,99.90
2023-03-17T20:47:20.648Z,99.90
2023-03-17T20:49:47.816Z,99.90
2023-03-17T20:52:15.153Z,99.90
2023-03-17T20:54:41.990Z,99.90
2023-03-17T20:57:11.144Z,99.90
2023-03-17T20:59:37.764Z,99.90
2023-03-17T21:02:04.895Z,99.90
2023-03-17T21:04:31.655Z,99.90
2023-03-17T21:06:58.286Z,99.90
2023-03-17T21:09:25.110Z,99.90
2023-03-17T21:11:51.891Z,99.90
2023-03-17T21:14:18.495Z,99.90
2023-03-17T21:16:47.136Z,99.90
2023-03-17T21:19:15.282Z,99.90
2023-03-17T21:21:41.989Z,99.90
2023-03-17T21:24:14.920Z,99.90
2023-03-17T21:26:41.527Z,99.90
2023-03-17T21:29:08.188Z,99.90
2023-03-17T21:31:34.844Z,99.90
2023-03-17T21:34:01.505Z,99.90
2023-03-17T21:36:28.596Z,99.90
2023-03-17T21:38:55.205Z,99.90
2023-03-17T21:41:23.715Z,99.90
2023-03-17T21:43:50.512Z,99.90
2023-03-17T21:46:17.268Z,99.90
2023-03-17T21:48:44.161Z,99.90
2023-03-17T21:51:11.256Z,99.90
2023-03-17T21:53:37.929Z,99.90
2023-03-17T21:56:04.674Z,99.90
2023-03-17T21:58:31.361Z,99.90
2023-03-17T22:01:00.228Z,99.90
2023-03-17T22:03:27.025Z,99.90
2023-03-17T22:05:54.638Z,99.90
2023-03-17T22:08:21.854Z,99.90
2023-03-17T22:10:48.899Z,99.90
2023-03-17T22:13:15.575Z,99.90
2023-03-17T22:15:42.757Z,99.90
2023-03-17T22:18:09.560Z,99.90
2023-03-17T22:20:36.245Z,99.90
2023-03-17T22:23:03.216Z,99.90
2023-03-17T22:25:29.872Z,99.90
2023-03-17T22:27:57.018Z,99.90
2023-03-17T22:30:23.683Z,99.90
2023-03-17T22:32:51.019Z,99.90
2023-03-17T22:35:19.575Z,99.90
2023-03-17T22:37:47.297Z,99.90
2023-03-17T22:40:14.815Z,99.90
2023-03-17T22:42:41.521Z,99.90
2023-03-17T22:45:08.491Z,99.90
2023-03-17T22:47:35.229Z,99.90
2023-03-17T22:50:02.049Z,99.90
2023-03-17T22:52:29.677Z,99.90
2023-03-17T22:54:56.698Z,99.90
2023-03-17T22:57:23.720Z,99.90
2023-03-17T22:59:52.199Z,99.90
2023-03-17T23:02:18.924Z,99.90
2023-03-17T23:04:45.555Z,99.90
2023-03-17T23:07:12.217Z,99.90
2023-03-17T23:09:40.465Z,99.90
2023-03-17T23:12:07.998Z,99.90
2023-03-17T23:14:34.570Z,99.90
2023-03-17T23:17:01.265Z,99.90
2023-03-17T23:19:27.900Z,99.90
2023-03-17T23:21:54.567Z,99.90
2023-03-17T23:24:21.638Z,99.90
2023-03-17T23:26:48.281Z,99.90
2023-03-17T23:29:14.968Z,99.90
2023-03-17T23:31:41.733Z,99.90
2023-03-17T23:34:09.071Z,99.90
2023-03-17T23:36:39.897Z,99.90
2023-03-17T23:39:07.447Z,99.90
2023-03-17T23:41:34.114Z,99.90
2023-03-17T23:44:00.929Z,99.90
2023-03-17T23:46:28.896Z,99.90
2023-03-17T23:48:55.707Z,99.90
2023-03-17T23:51:22.470Z,99.90
2023-03-17T23:53:50.514Z,99.90
2023-03-17T23:56:17.389Z,99.90
2023-03-17T23:58:44.159Z,99.90
